KCVN/CVN METAR and TAF weather

Enter ICAO airport designator
Station Type Date Time Source
KCVN METAR 2023/01/30 11:21 UTC NOAA

KCVN 301121Z AUTO 04009KT 2SM -SN BR OVC004 M10/M11 A3016 RMK AO2 P0000 FZRANO


Station Type Date Time Source
KCVN Decoded METAR 2023/01/30 11:21 UTC NOAA

Clovis, Clovis Municipal Airport, NM, United States (KCVN) 34-26N 103-05W
Jan 30, 2023 - 06:21 AM EST / 2023.01.30 1121 UTC
Wind: from the NE (040 degrees) at 10 MPH (9 KT):0
Visibility: 2 mile(s):0
Sky conditions: overcast
Weather: light snow; mist
Precipitation last hour: A trace
Temperature: 14 F (-10 C)
Windchill: 1 F (-17 C):1
Dew Point: 12 F (-11 C)
Relative Humidity: 92%
Pressure (altimeter): 30.16 in. Hg (1021 hPa)
ob: KCVN 301121Z AUTO 04009KT 2SM -SN BR OVC004 M10/M11 A3016 RMK AO2 P0000 FZRANO
cycle: 11

Station Type Date Time Source
KCVN TAF UTC NOAA

Error!

Example: see airport list